createdAt,value
2018-04-22T00:00:42.278Z,61.80
2018-04-22T00:03:09.887Z,61.80
2018-04-22T00:05:37.517Z,61.90
2018-04-22T00:08:05.118Z,61.90
2018-04-22T00:10:32.770Z,61.90
2018-04-22T00:13:00.374Z,62.00
2018-04-22T00:15:27.983Z,62.10
2018-04-22T00:17:56.375Z,62.50
2018-04-22T00:20:23.966Z,62.40
2018-04-22T00:22:51.598Z,62.20
2018-04-22T00:25:19.190Z,62.40
2018-04-22T00:27:46.827Z,62.70
2018-04-22T00:30:14.411Z,63.00
2018-04-22T00:32:42.043Z,63.10
2018-04-22T00:35:09.639Z,63.30
2018-04-22T00:37:37.267Z,63.30
2018-04-22T00:40:04.858Z,63.10
2018-04-22T00:42:32.525Z,62.90
2018-04-22T00:45:00.126Z,62.90
2018-04-22T00:47:28.487Z,62.70
2018-04-22T00:49:56.119Z,62.60
2018-04-22T00:52:23.780Z,62.60
2018-04-22T00:54:51.375Z,62.60
2018-04-22T00:57:18.970Z,62.70
2018-04-22T00:59:47.367Z,62.80
2018-04-22T01:02:14.961Z,62.80
2018-04-22T01:04:42.559Z,63.10
2018-04-22T01:07:10.214Z,63.00
2018-04-22T01:09:37.811Z,62.80
2018-04-22T01:12:05.459Z,62.70
2018-04-22T01:14:33.871Z,62.50
2018-04-22T01:17:01.470Z,62.50
2018-04-22T01:19:29.115Z,63.60
2018-04-22T01:21:56.713Z,62.60
2018-04-22T01:24:25.092Z,62.50
2018-04-22T01:26:53.492Z,62.30
2018-04-22T01:29:21.138Z,62.30
2018-04-22T01:31:49.503Z,62.70
2018-04-22T01:34:17.103Z,62.70
2018-04-22T01:36:44.731Z,62.90
2018-04-22T01:39:12.322Z,63.10
2018-04-22T01:41:39.966Z,63.20
2018-04-22T01:44:08.319Z,63.20
2018-04-22T01:46:35.955Z,63.00
2018-04-22T01:49:03.550Z,63.30
2018-04-22T01:51:31.189Z,63.40
2018-04-22T01:53:58.832Z,63.60
2018-04-22T01:56:26.428Z,63.60
2018-04-22T01:58:54.030Z,63.20
2018-04-22T02:01:21.719Z,63.10
2018-04-22T02:03:49.312Z,63.20
2018-04-22T02:06:16.963Z,63.40
2018-04-22T02:08:44.562Z,63.20
2018-04-22T02:11:12.959Z,63.30
2018-04-22T02:13:40.550Z,63.30
2018-04-22T02:16:08.180Z,63.30
2018-04-22T02:18:35.786Z,63.60
2018-04-22T02:21:03.420Z,63.60
2018-04-22T02:23:31.015Z,63.60
2018-04-22T02:25:58.654Z,63.60
2018-04-22T02:28:26.283Z,63.50
2018-04-22T02:30:53.879Z,62.90
2018-04-22T02:33:21.508Z,62.60
2018-04-22T02:35:49.114Z,62.60
2018-04-22T02:38:16.743Z,62.40
2018-04-22T02:40:44.334Z,62.70
2018-04-22T02:43:12.766Z,63.20
2018-04-22T02:45:40.374Z,63.20
2018-04-22T02:48:07.967Z,63.40
2018-04-22T02:50:35.603Z,63.50
2018-04-22T02:53:03.198Z,63.50
2018-04-22T02:55:31.608Z,63.30
2018-04-22T02:57:59.208Z,63.30
2018-04-22T03:00:26.811Z,63.50
2018-04-22T03:02:55.210Z,63.80
2018-04-22T03:05:22.806Z,63.60
2018-04-22T03:07:50.438Z,64.00
2018-04-22T03:10:18.035Z,64.10
2018-04-22T03:12:45.695Z,64.20
2018-04-22T03:15:13.336Z,64.20
2018-04-22T03:17:40.960Z,64.90
2018-04-22T03:20:09.360Z,64.20
2018-04-22T03:22:36.991Z,64.00
2018-04-22T03:25:05.414Z,64.00
2018-04-22T03:27:33.055Z,63.90
2018-04-22T03:30:00.651Z,63.70
2018-04-22T03:32:28.263Z,63.40
2018-04-22T03:34:56.694Z,63.50
2018-04-22T03:37:24.290Z,63.40
2018-04-22T03:39:51.882Z,63.50
2018-04-22T03:42:19.506Z,63.50
2018-04-22T03:44:47.101Z,63.50
2018-04-22T03:47:14.727Z,63.50
2018-04-22T03:49:42.333Z,63.50
2018-04-22T03:52:09.975Z,63.20
2018-04-22T03:54:38.367Z,62.80
2018-04-22T03:57:05.963Z,62.70
2018-04-22T03:59:33.586Z,62.80
2018-04-22T04:02:01.183Z,62.90
2018-04-22T04:04:28.814Z,62.90
2018-04-22T04:06:56.446Z,63.10
2018-04-22T04:09:24.040Z,63.10
2018-04-22T04:11:51.666Z,63.40
2018-04-22T04:14:19.262Z,63.50
2018-04-22T04:16:46.886Z,63.30
2018-04-22T04:19:26.343Z,63.40
2018-04-22T04:22:06.566Z,63.50
2018-04-22T04:24:47.059Z,63.30
2018-04-22T04:30:19.126Z,63.20
2018-04-22T04:32:46.867Z,62.90
2018-04-22T04:35:14.495Z,62.80
2018-04-22T04:37:42.114Z,62.70
2018-04-22T04:40:09.851Z,62.90
2018-04-22T04:42:37.427Z,62.90
2018-04-22T04:45:05.045Z,63.00
2018-04-22T04:47:32.682Z,63.00
2018-04-22T04:50:01.099Z,62.90
2018-04-22T04:52:28.695Z,62.90
2018-04-22T04:54:56.311Z,63.20
2018-04-22T04:57:23.943Z,63.50
2018-04-22T04:59:52.467Z,63.90
2018-04-22T05:02:20.103Z,63.80
2018-04-22T05:04:47.812Z,64.00
2018-04-22T05:07:15.438Z,64.20
2018-04-22T05:09:43.078Z,64.10
2018-04-22T05:12:11.475Z,64.20
2018-04-22T05:14:39.071Z,64.20
2018-04-22T05:17:06.719Z,64.30
2018-04-22T05:19:34.318Z,64.30
2018-04-22T05:22:01.927Z,64.50
2018-04-22T05:24:29.567Z,64.50
2018-04-22T05:26:57.930Z,64.50
2018-04-22T05:29:25.526Z,64.50
2018-04-22T05:31:53.150Z,64.50
2018-04-22T05:34:20.754Z,64.50
2018-04-22T05:36:48.399Z,64.50
2018-04-22T05:39:16.796Z,64.50
2018-04-22T05:41:44.445Z,64.50
2018-04-22T05:44:12.055Z,64.50
2018-04-22T05:46:39.652Z,64.50
2018-04-22T05:49:07.295Z,64.50
2018-04-22T05:51:34.891Z,64.50
2018-04-22T05:54:03.255Z,64.70
2018-04-22T05:56:31.651Z,64.90
2018-04-22T05:59:00.011Z,65.10
2018-04-22T06:01:27.674Z,65.00
2018-04-22T06:03:56.038Z,65.60
2018-04-22T06:06:24.443Z,65.80
2018-04-22T06:08:52.076Z,65.80
2018-04-22T06:11:19.693Z,65.90
2018-04-22T06:13:47.323Z,66.00
2018-04-22T06:16:14.937Z,66.90
2018-04-22T06:18:43.343Z,66.10
2018-04-22T06:21:10.951Z,66.10
2018-04-22T06:23:38.591Z,66.20
2018-04-22T06:26:06.183Z,66.20
2018-04-22T06:28:33.835Z,66.20
2018-04-22T06:31:01.435Z,66.20
2018-04-22T06:33:29.836Z,66.10
2018-04-22T06:35:57.464Z,66.00
2018-04-22T06:38:25.858Z,65.40
2018-04-22T06:40:54.254Z,65.10
2018-04-22T06:43:21.882Z,65.10
2018-04-22T06:45:50.297Z,65.20
2018-04-22T06:48:17.923Z,64.50
2018-04-22T06:50:46.324Z,65.40
2018-04-22T06:53:17.120Z,64.40
2018-04-22T06:55:44.926Z,64.50
2018-04-22T06:58:13.329Z,64.80
2018-04-22T07:00:40.927Z,64.80
2018-04-22T07:03:08.554Z,64.90
2018-04-22T07:05:36.191Z,65.00
2018-04-22T07:08:04.640Z,65.30
2018-04-22T07:10:32.213Z,65.30
2018-04-22T07:12:59.882Z,65.20
2018-04-22T07:15:28.243Z,65.30
2018-04-22T07:17:55.868Z,65.20
2018-04-22T07:20:23.460Z,65.40
2018-04-22T07:22:51.120Z,65.40
2018-04-22T07:25:18.710Z,65.40
2018-04-22T07:27:47.086Z,65.40
2018-04-22T07:30:15.479Z,65.30
2018-04-22T07:32:43.912Z,65.30
2018-04-22T07:35:11.539Z,65.30
2018-04-22T07:37:39.178Z,65.60
2018-04-22T07:40:07.711Z,65.90
2018-04-22T07:42:35.373Z,65.80
2018-04-22T07:45:02.973Z,65.60
2018-04-22T07:47:33.271Z,65.80
2018-04-22T07:50:01.302Z,65.60
2018-04-22T07:52:29.191Z,64.40
2018-04-22T07:54:56.822Z,62.90
2018-04-22T07:57:24.414Z,63.90
2018-04-22T07:59:52.007Z,64.10
2018-04-22T08:02:19.962Z,64.10
2018-04-22T08:04:47.603Z,63.80
2018-04-22T08:07:15.230Z,63.70
2018-04-22T08:09:43.594Z,64.00
2018-04-22T08:12:12.041Z,63.50
2018-04-22T08:14:39.709Z,63.20
2018-04-22T08:17:07.343Z,63.30
2018-04-22T08:19:35.008Z,62.70
2018-04-22T08:22:02.684Z,63.20
2018-04-22T08:24:30.314Z,63.30
2018-04-22T08:26:57.898Z,63.00
2018-04-22T08:29:25.709Z,62.90
2018-04-22T08:31:54.111Z,62.70
2018-04-22T08:34:22.518Z,62.60
2018-04-22T08:36:50.143Z,62.50
2018-04-22T08:39:18.655Z,62.50
2018-04-22T08:41:46.416Z,62.40
2018-04-22T08:44:14.104Z,62.20
2018-04-22T08:46:41.766Z,61.70
2018-04-22T08:49:09.363Z,61.20
2018-04-22T08:51:36.947Z,61.10
2018-04-22T08:54:05.583Z,61.30
2018-04-22T08:56:33.267Z,61.40
2018-04-22T08:59:01.803Z,61.00
2018-04-22T09:01:29.531Z,61.50
2018-04-22T09:03:57.940Z,62.00
2018-04-22T09:06:25.567Z,61.20
2018-04-22T09:08:53.218Z,61.20
2018-04-22T09:11:20.848Z,61.10
2018-04-22T09:13:48.451Z,60.90
2018-04-22T09:16:16.114Z,61.00
2018-04-22T09:18:43.755Z,61.30
2018-04-22T09:21:11.343Z,60.70
2018-04-22T09:23:39.703Z,61.70
2018-04-22T09:26:07.354Z,60.80
2018-04-22T09:28:34.983Z,60.50
2018-04-22T09:31:03.344Z,61.20
2018-04-22T09:33:30.979Z,61.00
2018-04-22T09:35:58.562Z,60.80
2018-04-22T09:38:26.178Z,60.20
2018-04-22T09:40:53.833Z,59.70
2018-04-22T09:43:21.484Z,59.90
2018-04-22T09:45:49.850Z,61.00
2018-04-22T09:48:18.262Z,59.90
2018-04-22T09:50:45.915Z,59.90
2018-04-22T09:53:13.507Z,59.90
2018-04-22T09:55:41.175Z,60.10
2018-04-22T09:58:08.794Z,60.00
2018-04-22T10:00:36.410Z,59.90
2018-04-22T10:03:06.854Z,60.40
2018-04-22T10:05:40.128Z,60.70
2018-04-22T10:08:07.751Z,60.40
2018-04-22T10:10:35.334Z,59.80
2018-04-22T10:13:02.959Z,60.00
2018-04-22T10:15:31.323Z,60.80
2018-04-22T10:17:59.746Z,60.90
2018-04-22T10:20:27.342Z,60.10
2018-04-22T10:22:54.955Z,60.30
2018-04-22T10:25:22.607Z,60.40
2018-04-22T10:27:50.256Z,61.00
2018-04-22T10:30:18.611Z,61.90
2018-04-22T10:32:46.247Z,61.90
2018-04-22T10:35:13.835Z,61.70
2018-04-22T10:37:41.417Z,61.60
2018-04-22T10:40:09.889Z,61.10
2018-04-22T10:42:37.463Z,61.00
2018-04-22T10:45:05.814Z,61.80
2018-04-22T10:47:33.439Z,61.90
2018-04-22T10:50:01.075Z,60.70
2018-04-22T10:52:34.338Z,60.60
2018-04-22T10:55:02.201Z,60.70
2018-04-22T10:57:29.836Z,61.30
2018-04-22T10:59:57.520Z,61.40
2018-04-22T11:02:25.142Z,61.80
2018-04-22T11:04:52.782Z,62.00
2018-04-22T11:07:20.436Z,61.10
2018-04-22T11:09:48.102Z,61.70
2018-04-22T11:12:15.698Z,62.10
2018-04-22T11:14:43.335Z,62.10
2018-04-22T11:17:11.008Z,62.00
2018-04-22T11:19:38.750Z,61.70
2018-04-22T11:22:06.361Z,61.90
2018-04-22T11:24:34.778Z,61.20
2018-04-22T11:27:02.394Z,61.20
2018-04-22T11:29:30.024Z,61.30
2018-04-22T11:31:57.610Z,61.50
2018-04-22T11:34:25.239Z,61.60
2018-04-22T11:36:52.866Z,61.50
2018-04-22T11:39:20.456Z,61.90
2018-04-22T11:41:48.087Z,61.70
2018-04-22T11:44:16.443Z,61.70
2018-04-22T11:46:44.078Z,61.70
2018-04-22T11:49:11.680Z,62.00
2018-04-22T11:51:39.310Z,61.90
2018-04-22T11:54:07.407Z,61.80
2018-04-22T11:56:35.246Z,61.10
2018-04-22T11:59:04.107Z,60.50
2018-04-22T12:01:31.960Z,60.50
2018-04-22T12:03:59.590Z,60.80
2018-04-22T12:06:27.391Z,60.50
2018-04-22T12:08:55.063Z,59.30
2018-04-22T12:11:22.653Z,58.60
2018-04-22T12:13:51.015Z,58.20
2018-04-22T12:16:18.641Z,58.10
2018-04-22T12:18:46.230Z,57.50
2018-04-22T12:21:14.622Z,57.90
2018-04-22T12:23:42.984Z,56.20
2018-04-22T12:26:11.390Z,57.00
2018-04-22T12:28:39.891Z,57.00
2018-04-22T12:31:07.526Z,56.80
2018-04-22T12:33:35.127Z,56.20
2018-04-22T12:36:02.767Z,56.90
2018-04-22T12:38:30.359Z,57.40
2018-04-22T12:40:58.038Z,57.50
2018-04-22T12:43:25.627Z,57.10
2018-04-22T12:45:53.979Z,56.70
2018-04-22T12:48:22.660Z,56.70
2018-04-22T12:50:52.411Z,56.50
2018-04-22T12:53:20.168Z,57.30
2018-04-22T12:55:47.771Z,58.30
2018-04-22T12:58:15.411Z,58.70
2018-04-22T13:00:43.047Z,58.70
2018-04-22T13:03:10.688Z,57.10
2018-04-22T13:05:38.352Z,56.40
2018-04-22T13:08:06.741Z,54.90
2018-04-22T13:10:35.104Z,55.70
2018-04-22T13:13:03.518Z,55.30
2018-04-22T13:15:31.159Z,55.20
2018-04-22T13:17:59.531Z,54.00
2018-04-22T13:20:27.925Z,54.00
2018-04-22T13:22:55.535Z,53.70
2018-04-22T13:25:23.179Z,53.90
2018-04-22T13:27:50.920Z,54.10
2018-04-22T13:30:18.502Z,54.70
2018-04-22T13:32:46.174Z,55.10
2018-04-22T13:35:13.766Z,55.90
2018-04-22T13:37:42.198Z,54.90
2018-04-22T13:40:09.844Z,54.70
2018-04-22T13:42:37.435Z,55.10
2018-04-22T13:45:05.066Z,53.90
2018-04-22T13:47:32.702Z,55.10
2018-04-22T13:50:00.319Z,55.30
2018-04-22T13:52:27.974Z,55.70
2018-04-22T13:54:55.614Z,55.20
2018-04-22T13:57:23.218Z,54.50
2018-04-22T13:59:50.810Z,54.30
2018-04-22T14:02:18.404Z,55.20
2018-04-22T14:04:46.027Z,55.30
2018-04-22T14:07:14.419Z,55.80
2018-04-22T14:09:42.027Z,55.80
2018-04-22T14:12:09.653Z,56.10
2018-04-22T14:14:37.274Z,56.50
2018-04-22T14:17:04.903Z,56.30
2018-04-22T14:19:32.526Z,57.00
2018-04-22T14:22:00.119Z,56.90
2018-04-22T14:24:27.739Z,56.80
2018-04-22T14:26:55.341Z,56.70
2018-04-22T14:29:22.961Z,57.50
2018-04-22T14:31:51.310Z,57.50
2018-04-22T14:34:18.932Z,57.50
2018-04-22T14:36:46.559Z,58.30
2018-04-22T14:39:14.911Z,57.30
2018-04-22T14:41:42.562Z,57.40
2018-04-22T14:44:22.088Z,56.70
2018-04-22T14:46:49.727Z,56.50
2018-04-22T14:49:17.317Z,56.70
2018-04-22T14:51:44.902Z,56.60
2018-04-22T14:54:12.532Z,56.60
2018-04-22T14:56:40.176Z,56.40
2018-04-22T14:59:07.803Z,56.90
2018-04-22T15:01:36.200Z,57.00
2018-04-22T15:04:03.823Z,57.00
2018-04-22T15:06:31.420Z,57.00
2018-04-22T15:08:59.047Z,57.20
2018-04-22T15:11:26.667Z,57.20
2018-04-22T15:13:54.306Z,57.00
2018-04-22T15:16:21.899Z,56.80
2018-04-22T15:18:49.491Z,56.60
2018-04-22T15:21:17.122Z,55.10
2018-04-22T15:23:44.710Z,55.40
2018-04-22T15:26:13.105Z,55.40
2018-04-22T15:28:40.723Z,55.30
2018-04-22T15:31:08.333Z,55.40
2018-04-22T15:33:35.991Z,55.70
2018-04-22T15:36:03.587Z,55.50
2018-04-22T15:38:31.215Z,55.70
2018-04-22T15:40:58.808Z,55.90
2018-04-22T15:43:26.439Z,56.10
2018-04-22T15:45:54.044Z,55.30
2018-04-22T15:48:21.670Z,55.70
2018-04-22T15:50:49.260Z,55.70
2018-04-22T15:53:16.887Z,55.70
2018-04-22T15:55:44.470Z,55.90
2018-04-22T15:58:12.243Z,55.90
2018-04-22T16:00:39.986Z,56.10
2018-04-22T16:03:07.606Z,56.70
2018-04-22T16:05:35.962Z,56.90
2018-04-22T16:08:03.608Z,56.80
2018-04-22T16:10:31.242Z,56.80
2018-04-22T16:12:58.913Z,56.90
2018-04-22T16:15:26.539Z,57.10
2018-04-22T16:17:54.890Z,57.20
2018-04-22T16:20:22.506Z,57.20
2018-04-22T16:22:50.086Z,57.40
2018-04-22T16:25:17.679Z,55.10
2018-04-22T16:27:45.330Z,55.30
2018-04-22T16:30:12.919Z,55.60
2018-04-22T16:32:41.277Z,56.10
2018-04-22T16:35:08.910Z,56.10
2018-04-22T16:37:36.499Z,56.70
2018-04-22T16:40:04.130Z,56.60
2018-04-22T16:42:31.711Z,57.10
2018-04-22T16:44:59.332Z,56.90
2018-04-22T16:47:26.920Z,57.00
2018-04-22T16:49:54.554Z,56.60
2018-04-22T16:52:22.138Z,56.20
2018-04-22T16:54:49.758Z,56.40
2018-04-22T16:57:18.119Z,56.30
2018-04-22T16:59:45.751Z,56.30
2018-04-22T17:02:13.338Z,56.30
2018-04-22T17:04:40.958Z,55.90
2018-04-22T17:07:08.585Z,56.00
2018-04-22T17:09:36.170Z,56.20
2018-04-22T17:12:03.799Z,56.70
2018-04-22T17:14:32.161Z,57.10
2018-04-22T17:16:59.792Z,57.10
2018-04-22T17:19:27.379Z,57.50
2018-04-22T17:21:55.001Z,57.70
2018-04-22T17:24:22.607Z,58.00
2018-04-22T17:26:50.251Z,58.20
2018-04-22T17:29:17.839Z,58.30
2018-04-22T17:31:46.200Z,58.70
2018-04-22T17:34:14.615Z,59.00
2018-04-22T17:36:42.223Z,58.90
2018-04-22T17:39:09.852Z,59.10
2018-04-22T17:41:37.442Z,59.20
2018-04-22T17:44:05.073Z,59.40
2018-04-22T17:46:32.654Z,59.50
2018-04-22T17:49:00.281Z,59.60
2018-04-22T17:51:27.872Z,59.70
2018-04-22T17:53:55.504Z,59.90
2018-04-22T17:56:23.870Z,60.10
2018-04-22T17:58:52.262Z,60.40
2018-04-22T18:01:20.618Z,60.60
2018-04-22T18:03:49.022Z,60.70
2018-04-22T18:06:16.647Z,60.70
2018-04-22T18:08:44.243Z,60.70
2018-04-22T18:11:12.646Z,61.00
2018-04-22T18:13:40.240Z,61.00
2018-04-22T18:16:07.830Z,61.10
2018-04-22T18:18:36.219Z,61.30
2018-04-22T18:21:04.579Z,61.40
2018-04-22T18:23:32.199Z,61.30
2018-04-22T18:25:59.790Z,61.40
2018-04-22T18:28:27.546Z,61.50
2018-04-22T18:30:55.138Z,61.50
2018-04-22T18:33:23.566Z,61.60
2018-04-22T18:35:51.170Z,61.50
2018-04-22T18:38:19.097Z,61.40
2018-04-22T18:40:46.770Z,61.30
2018-04-22T18:43:14.381Z,61.30
2018-04-22T18:45:42.744Z,61.20
2018-04-22T18:48:10.388Z,61.20
2018-04-22T18:50:37.973Z,61.20
2018-04-22T18:53:05.571Z,61.20
2018-04-22T18:55:33.279Z,61.20
2018-04-22T18:58:00.917Z,61.20
2018-04-22T19:00:28.559Z,61.20
2018-04-22T19:02:56.159Z,61.00
2018-04-22T19:05:23.754Z,60.70
2018-04-22T19:07:52.151Z,60.50
2018-04-22T19:10:19.744Z,59.90
2018-04-22T19:12:47.393Z,59.70
2018-04-22T19:15:14.995Z,59.70
2018-04-22T19:17:42.635Z,59.50
2018-04-22T19:20:10.991Z,59.80
2018-04-22T19:22:38.614Z,59.50
2018-04-22T19:25:06.235Z,59.60
2018-04-22T19:27:34.588Z,59.80
2018-04-22T19:30:02.239Z,59.50
2018-04-22T19:32:29.834Z,59.50
2018-04-22T19:34:57.474Z,59.50
2018-04-22T19:37:25.087Z,60.30
2018-04-22T19:39:52.710Z,59.60
2018-04-22T19:42:20.303Z,59.60
2018-04-22T19:44:47.928Z,59.70
2018-04-22T19:47:15.779Z,59.70
2018-04-22T19:49:43.436Z,59.70
2018-04-22T19:52:11.063Z,59.70
2018-04-22T19:54:38.673Z,59.70
2018-04-22T19:57:06.324Z,59.70
2018-04-22T19:59:33.916Z,59.80
2018-04-22T20:02:02.315Z,60.30
2018-04-22T20:04:30.671Z,59.70
2018-04-22T20:06:58.262Z,59.70
2018-04-22T20:09:25.919Z,60.40
2018-04-22T20:11:54.279Z,59.40
2018-04-22T20:14:21.900Z,59.40
2018-04-22T20:16:49.535Z,59.40
2018-04-22T20:19:17.147Z,59.70
2018-04-22T20:21:44.747Z,59.80
2018-04-22T20:24:12.375Z,59.80
2018-04-22T20:26:39.962Z,60.10
2018-04-22T20:29:07.608Z,59.90
2018-04-22T20:31:35.200Z,59.70
2018-04-22T20:34:02.795Z,59.70
2018-04-22T20:36:31.449Z,60.10
2018-04-22T20:38:59.038Z,60.10
2018-04-22T20:41:27.388Z,60.60
2018-04-22T20:43:55.014Z,60.60
2018-04-22T20:46:22.636Z,60.40
2018-04-22T20:48:50.991Z,59.60
2018-04-22T20:51:18.632Z,59.60
2018-04-22T20:53:46.238Z,59.70
2018-04-22T20:56:14.600Z,59.90
2018-04-22T20:58:42.235Z,59.80
2018-04-22T21:01:09.854Z,59.80
2018-04-22T21:03:37.447Z,60.00
2018-04-22T21:06:05.059Z,60.10
2018-04-22T21:08:33.462Z,60.10
2018-04-22T21:11:01.057Z,60.00
2018-04-22T21:13:28.651Z,60.20
2018-04-22T21:15:56.271Z,60.10
2018-04-22T21:18:23.908Z,60.00
2018-04-22T21:20:51.503Z,60.10
2018-04-22T21:23:19.099Z,60.30
2018-04-22T21:25:46.731Z,60.30
2018-04-22T21:28:14.354Z,60.50
2018-04-22T21:30:41.991Z,60.60
2018-04-22T21:33:09.619Z,60.50
2018-04-22T21:35:37.260Z,60.60
2018-04-22T21:38:04.855Z,60.50
2018-04-22T21:40:32.491Z,60.80
2018-04-22T21:43:00.088Z,61.20
2018-04-22T21:45:27.679Z,62.00
2018-04-22T21:47:55.373Z,62.30
2018-04-22T21:50:22.975Z,62.30
2018-04-22T21:52:50.621Z,62.30
2018-04-22T21:55:18.226Z,62.40
2018-04-22T21:57:45.818Z,62.50
2018-04-22T22:00:13.443Z,63.40
2018-04-22T22:02:41.866Z,62.50
2018-04-22T22:05:09.503Z,62.40
2018-04-22T22:07:37.131Z,62.50
2018-04-22T22:10:04.776Z,62.50
2018-04-22T22:12:32.415Z,62.50
2018-04-22T22:15:00.063Z,62.60
2018-04-22T22:17:27.648Z,62.80
2018-04-22T22:19:55.271Z,62.80
2018-04-22T22:22:22.870Z,62.60
2018-04-22T22:24:50.507Z,62.60
2018-04-22T22:27:18.134Z,62.60
2018-04-22T22:29:46.495Z,62.70
2018-04-22T22:32:14.118Z,62.70
2018-04-22T22:34:41.711Z,62.80
2018-04-22T22:37:09.340Z,63.00
2018-04-22T22:39:36.931Z,62.90
2018-04-22T22:42:04.551Z,63.00
2018-04-22T22:44:32.194Z,62.90
2018-04-22T22:47:00.551Z,63.20
2018-04-22T22:49:28.148Z,63.20
2018-04-22T22:51:55.774Z,62.40
2018-04-22T22:54:24.162Z,62.20
2018-04-22T22:56:52.519Z,62.80
2018-04-22T22:59:20.142Z,62.80
2018-04-22T23:01:47.750Z,63.00
2018-04-22T23:04:15.373Z,63.10
2018-04-22T23:06:42.960Z,63.00
2018-04-22T23:09:10.592Z,63.10
2018-04-22T23:11:38.214Z,63.10
2018-04-22T23:14:06.646Z,62.70
2018-04-22T23:16:34.282Z,62.50
2018-04-22T23:19:01.871Z,62.50
2018-04-22T23:21:29.458Z,62.50
2018-04-22T23:23:57.080Z,62.60
2018-04-22T23:26:24.714Z,62.70
2018-04-22T23:28:52.335Z,62.80
2018-04-22T23:31:19.980Z,63.00
2018-04-22T23:33:47.581Z,63.30
2018-04-22T23:36:15.186Z,63.20
2018-04-22T23:38:42.813Z,63.20
2018-04-22T23:41:10.408Z,63.20
2018-04-22T23:43:38.030Z,63.10
2018-04-22T23:46:05.620Z,62.90
2018-04-22T23:48:33.283Z,62.80
2018-04-22T23:51:00.889Z,62.70
2018-04-22T23:53:28.515Z,62.70
2018-04-22T23:55:56.103Z,62.60
2018-04-22T23:58:23.778Z,62.50
